Time;durP1;ratioP1;P1;durP2;ratioP2;P2;SDS_P1;SDS_P2;PMS_P1;PMS_P2;Temp;Humidity;BMP_temperature;BMP_pressure;BME280_temperature;BME280_humidity;BME280_pressure;Samples;Min_cycle;Max_cycle;Signal;HPM_P1;HPM_P2
2022/12/17 13:06:53;;;;;;;122.65;54.85;;;;;;;-2.78;100.00;66475.31;5025530;28;20121;-87
2022/12/17 13:09:25;;;;;;;135.88;58.42;;;;;;;-2.70;100.00;66488.94;5022562;28;20049;-86
2022/12/17 13:11:59;;;;;;;139.68;59.35;;;;;;;;;;5013522;28;20041;-86
2022/12/17 13:14:45;;;;;;;105.70;44.35;;;;;;;-2.68;100.00;66488.00;5006788;28;20038;-85
2022/12/17 13:17:13;;;;;;;130.73;57.42;;;;;;;-2.66;100.00;66488.22;5010267;28;20050;-87
2022/12/17 13:19:46;;;;;;;110.10;46.10;;;;;;;-2.66;100.00;66488.22;5007564;28;20035;-85
2022/12/17 13:22:14;;;;;;;142.18;67.40;;;;;;;;;;5009238;28;20061;-85
2022/12/17 13:24:41;;;;;;;129.90;58.97;;;;;;;-2.67;100.00;66486.53;5022973;28;20124;-86
2022/12/17 13:27:34;;;;;;;125.07;60.30;;;;;;;-2.70;100.00;66486.34;5011960;28;20042;-85
2022/12/17 13:30:21;;;;;;;123.43;52.63;;;;;;;-2.73;100.00;66486.13;5013783;28;20037;-85
2022/12/17 13:32:55;;;;;;;110.72;50.05;;;;;;;-2.77;100.00;66481.06;4999480;28;20197;-85
2022/12/17 13:35:28;;;;;;;121.88;51.67;;;;;;;-2.78;100.00;66479.97;5019326;28;20044;-84
2022/12/17 13:38:07;;;;;;;134.43;67.93;;;;;;;-2.71;100.00;66482.59;5027584;28;20048;-86
2022/12/17 13:40:32;;;;;;;;;;;;;;;;;;5036790;28;20048;-85
2022/12/17 13:42:58;;;;;;;136.52;61.10;;;;;;;;;;5021674;28;19937;-86
2022/12/17 13:45:26;;;;;;;121.38;52.13;;;;;;;-2.85;100.00;66470.06;5016393;28;20048;-86
2022/12/17 13:47:53;;;;;;;132.45;65.18;;;;;;;-2.80;100.00;66475.13;5016752;28;20061;-85
2022/12/17 13:50:22;;;;;;;133.05;61.70;;;;;;;-2.77;100.00;66478.47;5004474;28;20037;-86
2022/12/17 13:52:47;;;;;;;138.80;63.40;;;;;;;-2.72;100.00;66484.66;5005842;28;20172;-88
2022/12/17 13:55:20;;;;;;;139.63;66.95;;;;;;;;;;5009611;28;20081;-86
2022/12/17 13:57:47;;;;;;;133.85;63.20;;;;;;;-2.72;100.00;66487.25;5007094;28;20557;-87
2022/12/17 14:00:24;;;;;;;138.55;65.25;;;;;;;-2.72;100.00;66484.66;5001330;28;20061;-86
2022/12/17 14:02:51;;;;;;;133.73;57.35;;;;;;;-2.74;100.00;66479.78;4997285;28;20041;-86
2022/12/17 14:05:29;;;;;;;142.73;66.78;;;;;;;-2.76;100.00;66477.56;5002643;28;20041;-87
2022/12/17 14:08:01;;;;;;;155.70;77.18;;;;;;;-2.72;100.00;66484.66;5005976;28;20081;-87
2022/12/17 14:10:27;;;;;;;129.27;62.00;;;;;;;;;;5003558;28;20587;-86
2022/12/17 14:13:12;;;;;;;147.32;65.13;;;;;;;-2.69;100.00;66484.28;4998866;28;20495;-87
2022/12/17 14:15:37;;;;;;;130.30;57.67;;;;;;;;;;5002313;28;20046;-86
2022/12/17 14:18:03;;;;;;;134.40;64.35;;;;;;;-2.68;100.00;66485.97;4993897;28;20057;-87
2022/12/17 14:20:32;;;;;;;142.40;69.10;;;;;;;-2.69;100.00;66484.28;4997877;28;20058;-87
2022/12/17 14:23:09;;;;;;;138.35;68.25;;;;;;;-2.74;100.00;66482.41;5000058;28;20046;-86
2022/12/17 14:25:36;;;;;;;137.65;63.88;;;;;;;-2.79;100.00;66474.19;4998680;28;20050;-86
2022/12/17 14:28:29;;;;;;;117.95;49.30;;;;;;;-2.79;100.00;66476.22;4999199;28;20049;-86
2022/12/17 14:31:16;;;;;;;145.15;68.82;;;;;;;-2.82;100.00;66473.44;4995069;28;20433;-86
2022/12/17 14:33:42;;;;;;;127.55;55.05;;;;;;;-2.84;100.00;66468.03;5014375;28;20416;-87
2022/12/17 14:36:15;;;;;;;126.97;53.20;;;;;;;-2.88;100.00;66466.69;5017335;28;20045;-87
2022/12/17 14:38:53;;;;;;;138.30;64.97;;;;;;;-2.90;100.00;66461.31;5017056;28;20398;-87
2022/12/17 14:44:04;;;;;;;110.40;41.45;;;;;;;;;;5014491;28;20476;-87
2022/12/17 14:46:31;;;;;;;139.75;61.03;;;;;;;-2.95;100.00;66459.41;5009095;28;20039;-86
2022/12/17 14:49:01;;;;;;;142.43;71.97;;;;;;;-2.95;100.00;66456.81;5006158;28;20045;-87
2022/12/17 14:51:39;;;;;;;114.25;47.45;;;;;;;-2.99;100.00;66454.94;4992911;28;20066;-86
2022/12/17 14:54:30;;;;;;;87.40;35.38;;;;;;;-3.03;100.00;66447.28;5000240;28;20038;-86
2022/12/17 14:56:58;;;;;;;131.60;56.63;;;;;;;-3.02;100.00;66448.41;5005986;28;20557;-86
2022/12/17 14:59:37;;;;;;;146.85;59.05;;;;;;;-2.93;100.00;66457.91;5006369;28;20062;-87
2022/12/17 15:02:19;;;;;;;142.40;61.42;;;;;;;-2.95;100.00;66456.81;5008342;28;20788;-87
2022/12/17 15:04:45;;;;;;;137.32;56.10;;;;;;;-2.98;100.00;66453.44;5022045;28;20111;-87
2022/12/17 15:07:16;;;;;;;118.80;48.38;;;;;;;-3.05;100.00;66450.81;4997354;28;20038;-87
2022/12/17 15:09:42;;;;;;;121.70;48.40;;;;;;;-3.05;100.00;66445.59;4995531;28;20062;-86
2022/12/17 15:12:09;;;;;;;139.23;59.60;;;;;;;-3.13;100.00;66439.25;4996565;28;20061;-86
2022/12/17 15:14:34;;;;;;;156.48;63.17;;;;;;;-3.11;100.00;66441.47;5023119;28;20041;-88
2022/12/17 15:17:00;;;;;;;147.52;59.95;;;;;;;-3.14;100.00;66438.09;4995492;28;20383;-87
2022/12/17 15:19:25;;;;;;;124.85;57.80;;;;;;;-3.22;100.00;66429.16;5010103;28;20129;-86
2022/12/17 15:21:51;;;;;;;125.85;50.13;;;;;;;-3.21;100.00;66428.22;5006750;28;20069;-87
2022/12/17 15:24:19;;;;;;;123.88;50.38;;;;;;;-3.17;100.00;66434.75;5003782;28;20034;-86
2022/12/17 15:26:45;;;;;;;142.85;63.53;;;;;;;-3.13;100.00;66441.84;5001202;28;20102;-87
2022/12/17 15:29:11;;;;;;;150.50;60.47;;;;;;;-3.20;100.00;66429.34;4996042;28;20435;-87
2022/12/17 15:31:36;;;;;;;153.10;61.75;;;;;;;;;;5020192;28;20138;-86
2022/12/17 15:34:02;;;;;;;156.65;68.28;;;;;;;-3.15;100.00;66439.59;5010463;28;20068;-87
2022/12/17 15:36:28;;;;;;;148.52;56.88;;;;;;;-3.21;100.00;66430.81;5003748;28;20053;-86
2022/12/17 15:38:54;;;;;;;159.00;69.80;;;;;;;-3.26;100.00;66422.06;5013277;28;20057;-86
2022/12/17 15:44:03;;;;;;;154.90;65.72;;;;;;;-3.29;100.00;66421.31;5001966;28;20413;-87
2022/12/17 15:46:29;;;;;;;142.82;52.17;;;;;;;-3.35;100.00;66412.53;5007879;28;20050;-87
2022/12/17 15:48:55;;;;;;;170.95;66.25;;;;;;;-3.34;100.00;66413.66;4999046;28;20515;-87
2022/12/17 15:51:22;;;;;;;125.03;47.75;;;;;;;-3.39;100.00;66410.66;5004094;28;20488;-87
2022/12/17 15:53:48;;;;;;;121.68;49.75;;;;;;;-3.49;100.00;66396.84;5012905;28;20057;-85
2022/12/17 15:56:19;;;;;;;155.93;64.50;;;;;;;-3.55;100.00;66390.69;5019327;28;20049;-85
2022/12/17 15:58:44;;;;;;;93.10;35.58;;;;;;;-3.59;100.00;66390.84;5018564;28;20042;-86
2022/12/17 16:01:09;;;;;;;162.93;64.93;;;;;;;-3.61;100.00;66383.94;5017555;28;20070;-85
2022/12/17 16:03:35;;;;;;;108.25;44.67;;;;;;;-3.65;100.00;66382.63;5012071;28;20397;-84
2022/12/17 16:06:00;;;;;;;148.70;60.28;;;;;;;;;;5014241;28;20046;-84
2022/12/17 16:08:25;;;;;;;163.18;69.72;;;;;;;;;;5022703;28;20050;-84
2022/12/17 16:10:51;;;;;;;163.38;70.40;;;;;;;-3.63;100.00;66381.72;5022422;28;20044;-85
2022/12/17 16:13:16;;;;;;;148.40;61.20;;;;;;;-3.64;100.00;66386.34;5019203;28;20497;-84
2022/12/17 16:15:41;;;;;;;143.85;62.35;;;;;;;-3.66;100.00;66378.91;5014332;28;20042;-84
2022/12/17 16:18:07;;;;;;;152.48;62.85;;;;;;;-3.74;100.00;66371.97;5014979;28;20364;-84
2022/12/17 16:20:32;;;;;;;109.28;44.03;;;;;;;-3.76;100.00;66369.75;5006617;28;20053;-84
2022/12/17 16:22:57;;;;;;;156.15;69.65;;;;;;;-3.68;100.00;66376.69;5010651;28;20053;-84
2022/12/17 16:25:23;;;;;;;124.45;51.42;;;;;;;;;;5009546;28;20455;-83
2022/12/17 16:27:48;;;;;;;155.70;63.03;;;;;;;-3.72;100.00;66371.63;5027852;28;20065;-84
2022/12/17 16:30:13;;;;;;;123.88;49.85;;;;;;;-3.72;100.00;66376.81;5040192;28;20056;-85
2022/12/17 16:32:39;;;;;;;102.20;44.03;;;;;;;-3.74;100.00;66371.97;5022918;28;20038;-84
2022/12/17 16:35:05;;;;;;;134.73;57.25;;;;;;;-3.79;100.00;66364.34;5020688;28;20493;-84
2022/12/17 16:37:30;;;;;;;138.50;60.53;;;;;;;;;;5027975;28;20057;-84
2022/12/17 16:39:55;;;;;;;153.80;69.72;;;;;;;;;;5032485;28;20042;-83
2022/12/17 16:42:21;;;;;;;131.68;56.97;;;;;;;;;;5007622;28;20438;-84
2022/12/17 16:44:46;;;;;;;122.13;53.78;;;;;;;-3.86;100.00;66356.50;5002721;28;20041;-83
2022/12/17 16:47:11;;;;;;;121.05;54.95;;;;;;;-3.90;100.00;66357.78;5021518;28;20535;-84
2022/12/17 16:49:37;;;;;;;127.07;59.08;;;;;;;-3.97;100.00;66344.19;5017827;28;20101;-84
2022/12/17 16:52:02;;;;;;;113.28;48.55;;;;;;;-4.01;100.00;66340.25;5009782;28;20066;-84
2022/12/17 16:54:31;;;;;;;114.25;45.53;;;;;;;-4.05;100.00;66340.97;5004324;28;20042;-83
2022/12/17 16:56:57;;;;;;;139.32;64.20;;;;;;;-4.10;100.00;66333.34;5010198;28;20073;-84
2022/12/17 16:59:25;;;;;;;135.32;52.65;;;;;;;-4.17;100.00;66327.53;5013129;28;20049;-84
2022/12/17 17:01:51;;;;;;;144.00;64.95;;;;;;;-4.13;100.00;66326.81;5017568;28;20034;-84
2022/12/17 17:04:19;;;;;;;139.65;54.17;;;;;;;-4.17;100.00;66322.34;5003263;28;20049;-84
2022/12/17 17:06:46;;;;;;;137.73;57.70;;;;;;;;;;5013879;28;20103;-84
2022/12/17 17:09:12;;;;;;;140.52;55.83;;;;;;;-4.13;100.00;66327.38;5016762;28;20049;-84
2022/12/17 17:11:38;;;;;;;145.85;55.92;;;;;;;-4.11;100.00;66332.22;5003782;28;20228;-83
2022/12/17 17:14:04;;;;;;;149.20;61.47;;;;;;;-4.06;100.00;66337.25;5014455;28;20041;-83
2022/12/17 17:16:30;;;;;;;140.10;58.90;;;;;;;-4.13;100.00;66329.97;5013228;28;20045;-83
2022/12/17 17:18:56;;;;;;;153.63;59.17;;;;;;;-4.10;100.00;66330.19;5010293;28;20050;-83
2022/12/17 17:21:24;;;;;;;131.23;54.45;;;;;;;-4.18;100.00;66321.78;4994551;28;20513;-83
2022/12/17 17:23:54;;;;;;;122.22;50.38;;;;;;;-4.21;100.00;66321.00;5006339;28;20065;-83
2022/12/17 17:26:20;;;;;;;125.05;55.15;;;;;;;-4.25;100.00;66313.94;4992882;28;20034;-83
2022/12/17 17:28:45;;;;;;;98.15;43.95;;;;;;;-4.34;100.00;66304.44;5007652;28;20033;-83
2022/12/17 17:31:13;;;;;;;127.57;55.35;;;;;;;-4.40;100.00;66300.31;5029154;28;20037;-83
2022/12/17 17:33:42;;;;;;;125.63;55.58;;;;;;;-4.42;100.00;66297.50;5037671;28;20045;-83
2022/12/17 17:36:10;;;;;;;93.03;37.78;;;;;;;-4.48;100.00;66293.38;5027017;28;20042;-83
2022/12/17 17:38:37;;;;;;;107.43;45.33;;;;;;;-4.56;100.00;66282.38;5037708;28;20056;-83
2022/12/17 17:41:04;;;;;;;128.00;61.67;;;;;;;-4.62;100.00;66273.06;5013034;28;20057;-83
2022/12/17 17:43:30;;;;;;;120.97;50.47;;;;;;;-4.65;100.00;66272.88;5016656;28;20058;-83
2022/12/17 17:46:03;;;;;;;127.20;56.80;;;;;;;-4.64;100.00;66270.84;5010885;28;20568;-83
2022/12/17 17:48:31;;;;;;;131.68;55.35;;;;;;;-4.69;100.00;66267.81;4997564;28;20097;-83
2022/12/17 17:51:00;;;;;;;150.07;67.68;;;;;;;;;;5021380;28;20046;-83
2022/12/17 17:53:25;;;;;;;;;;;;;;;-4.71;100.00;66263.56;5019047;28;20056;-83
2022/12/17 17:55:51;;;;;;;153.32;68.70;;;;;;;-4.81;100.00;66254.97;5009521;28;20556;-83
2022/12/17 17:58:16;;;;;;;151.77;67.03;;;;;;;-4.81;100.00;66258.09;5010505;28;20110;-83
2022/12/17 18:00:41;;;;;;;152.60;65.03;;;;;;;-4.77;100.00;66260.00;5017252;28;20045;-83
2022/12/17 18:03:07;;;;;;;158.18;65.20;;;;;;;-4.80;100.00;66256.66;5014684;28;20038;-83
2022/12/17 18:05:39;;;;;;;172.07;63.78;;;;;;;;;;5011634;28;20053;-83
2022/12/17 18:08:04;;;;;;;152.18;53.45;;;;;;;-4.86;100.00;66246.75;5014872;28;20441;-83
2022/12/17 18:10:30;;;;;;;173.15;69.53;;;;;;;-4.82;100.00;66256.44;4998666;28;20513;-83
2022/12/17 18:15:40;;;;;;;206.40;81.90;;;;;;;-4.92;100.00;66245.81;5009923;28;20048;-83
2022/12/17 18:18:05;;;;;;;194.00;69.80;;;;;;;-4.92;100.00;66240.63;5007312;28;20460;-84
2022/12/17 18:20:31;;;;;;;181.88;66.70;;;;;;;-4.99;100.00;66232.78;5019131;28;20073;-84
2022/12/17 18:22:56;;;;;;;200.48;74.35;;;;;;;-4.96;100.00;66241.34;5020193;28;20099;-83
2022/12/17 18:25:21;;;;;;;223.07;81.78;;;;;;;-4.99;100.00;66235.94;5015286;28;20101;-83
2022/12/17 18:27:47;;;;;;;211.85;70.68;;;;;;;-5.01;100.00;66233.13;5013105;28;20109;-84
2022/12/17 18:30:12;;;;;;;223.48;80.38;;;;;;;-4.98;100.00;66239.09;5016108;28;20045;-84
2022/12/17 18:32:38;;;;;;;240.80;97.65;;;;;;;-4.97;100.00;66237.63;5025268;28;20041;-83
2022/12/17 18:35:04;;;;;;;233.32;80.57;;;;;;;-4.97;100.00;66240.22;5021555;28;20056;-83
2022/12/17 18:37:29;;;;;;;236.27;85.20;;;;;;;-4.94;100.00;66243.56;5009443;28;20080;-84
2022/12/17 18:39:58;;;;;;;233.15;85.40;;;;;;;-4.94;100.00;66240.41;5008039;28;20034;-83
2022/12/17 18:45:10;;;;;;;203.85;65.95;;;;;;;-4.92;100.00;66243.22;5006698;28;20073;-83
2022/12/17 18:47:35;;;;;;;211.57;72.43;;;;;;;-4.91;100.00;66244.34;5012170;28;20041;-83
2022/12/17 18:50:01;;;;;;;204.60;72.82;;;;;;;-4.90;100.00;66245.44;5014131;28;20042;-85
2022/12/17 18:52:26;;;;;;;224.55;89.60;;;;;;;-4.87;100.00;66248.25;5014188;28;20117;-83
2022/12/17 18:54:51;;;;;;;196.48;69.28;;;;;;;-4.83;100.00;66253.28;5016412;28;20042;-84
2022/12/17 18:57:17;;;;;;;191.93;70.82;;;;;;;-4.81;100.00;66252.91;5010756;28;20129;-83
2022/12/17 18:59:42;;;;;;;153.80;64.72;;;;;;;-4.87;100.00;66246.22;5018564;28;20045;-83
2022/12/17 19:02:10;;;;;;;142.70;60.05;;;;;;;-4.91;100.00;66243.78;5017312;28;20041;-83
2022/12/17 19:04:36;;;;;;;177.65;71.97;;;;;;;-4.91;100.00;66246.94;5022343;28;20046;-84
2022/12/17 19:07:01;;;;;;;197.60;82.40;;;;;;;-4.91;100.00;66246.94;5026217;28;20061;-83
2022/12/17 19:09:35;;;;;;;159.65;68.60;;;;;;;-4.88;100.00;66247.13;5023083;28;20101;-84
2022/12/17 19:12:02;;;;;;;192.48;77.35;;;;;;;-4.90;100.00;66248.03;5017028;28;20042;-84
2022/12/17 19:14:28;;;;;;;204.90;76.32;;;;;;;-4.85;100.00;66248.44;5008852;28;20114;-83
2022/12/17 19:16:56;;;;;;;133.88;51.83;;;;;;;-4.91;100.00;66241.75;5006247;28;20054;-84
2022/12/17 19:19:22;;;;;;;205.90;81.40;;;;;;;-4.88;100.00;66247.13;5008099;28;20056;-85
2022/12/17 19:21:48;;;;;;;137.27;46.28;;;;;;;-4.89;100.00;66246.00;5006350;28;20038;-85
2022/12/17 19:24:15;;;;;;;192.80;73.53;;;;;;;-4.85;100.00;66251.03;5007883;28;20050;-84
2022/12/17 19:26:42;;;;;;;152.02;54.75;;;;;;;-4.84;100.00;66254.75;5007392;28;20069;-85
2022/12/17 19:29:09;;;;;;;137.18;49.22;;;;;;;-4.89;100.00;66251.78;5006414;28;20081;-84
2022/12/17 19:31:35;;;;;;;183.80;63.45;;;;;;;-4.91;100.00;66243.78;5001292;28;20050;-83
2022/12/17 19:34:03;;;;;;;202.20;73.88;;;;;;;-4.90;100.00;66242.84;4995620;28;20052;-84
2022/12/17 19:36:30;;;;;;;176.35;68.63;;;;;;;-4.88;100.00;66244.53;4992769;28;20042;-84
2022/12/17 19:38:59;;;;;;;232.57;94.70;;;;;;;-4.87;100.00;66248.81;4993489;28;20123;-82
2022/12/17 19:41:26;;;;;;;207.55;75.35;;;;;;;-4.86;100.00;66249.34;4971159;28;20202;-83
2022/12/17 19:43:55;;;;;;;232.10;86.40;;;;;;;-4.90;100.00;66248.03;4996581;28;20129;-83
2022/12/17 19:46:21;;;;;;;167.90;60.70;;;;;;;-4.93;100.00;66239.50;4983041;28;20556;-83
2022/12/17 19:48:48;;;;;;;198.25;84.43;;;;;;;-4.93;100.00;66242.09;4979557;28;20046;-83
2022/12/17 19:51:16;;;;;;;183.55;72.70;;;;;;;-4.94;100.00;66243.03;4996570;28;20053;-84
2022/12/17 19:53:43;;;;;;;201.63;79.20;;;;;;;-4.97;100.00;66239.66;4988630;28;20053;-84
2022/12/17 19:56:22;;;;;;;182.07;68.95;;;;;;;-5.04;100.00;66232.38;4980887;28;20513;-83
2022/12/17 19:58:51;;;;;;;197.57;69.47;;;;;;;-5.04;100.00;66232.94;5000138;28;20066;-83
2022/12/17 20:01:28;;;;;;;234.55;85.85;;;;;;;-5.09;100.00;66221.59;4999769;28;20053;-83
2022/12/17 20:03:54;;;;;;;274.85;105.38;;;;;;;-5.16;100.00;66218.94;5005332;28;20494;-83
2022/12/17 20:06:22;;;;;;;288.88;111.93;;;;;;;-5.26;100.00;66203.69;5021574;28;20129;-82
2022/12/17 20:08:48;;;;;;;233.38;86.05;;;;;;;-5.27;100.00;66205.16;5025934;28;20072;-84
2022/12/17 20:11:32;;;;;;;252.88;90.40;;;;;;;-5.29;100.00;66208.13;5008423;28;20629;-84
2022/12/17 20:14:05;;;;;;;271.35;91.28;;;;;;;-5.32;100.00;66201.59;5003409;28;20104;-84
2022/12/17 20:16:31;;;;;;;250.05;79.95;;;;;;;;;;5011319;28;20042;-85
2022/12/17 20:18:58;;;;;;;221.15;73.78;;;;;;;-5.46;100.00;66186.50;5006522;28;20045;-84
2022/12/17 20:21:23;;;;;;;253.02;87.22;;;;;;;-5.46;100.00;66183.91;5008537;28;20249;-82
2022/12/17 20:23:49;;;;;;;267.05;96.40;;;;;;;-5.48;100.00;66181.69;5014918;28;20045;-83
2022/12/17 20:26:15;;;;;;;234.10;74.82;;;;;;;-5.48;100.00;66184.28;5009557;28;20041;-84
2022/12/17 20:28:41;;;;;;;243.07;80.38;;;;;;;-5.47;100.00;66185.97;5006493;28;20508;-83
2022/12/17 20:31:07;;;;;;;269.42;94.70;;;;;;;-5.47;100.00;66182.78;4993730;28;20046;-82
2022/12/17 20:33:32;;;;;;;273.13;86.55;;;;;;;;;;5018476;28;20433;-83
2022/12/17 20:36:05;;;;;;;291.65;92.15;;;;;;;-5.64;100.00;66166.91;5008841;28;20037;-82
2022/12/17 20:38:30;;;;;;;279.17;95.93;;;;;;;-5.67;100.00;66164.16;5018191;28;20080;-82
2022/12/17 20:40:56;;;;;;;207.32;66.70;;;;;;;-5.72;100.00;66153.38;4991241;28;20085;-82
2022/12/17 20:43:21;;;;;;;243.60;81.43;;;;;;;-5.79;100.00;66144.97;4991980;28;20043;-83
2022/12/17 20:45:54;;;;;;;233.18;75.82;;;;;;;-5.86;100.00;66137.72;5015780;28;20052;-82
2022/12/17 20:48:20;;;;;;;234.20;81.00;;;;;;;-5.84;100.00;66142.53;5014893;28;20042;-82
2022/12/17 20:50:45;;;;;;;180.75;65.82;;;;;;;-5.90;100.00;66136.41;5015754;28;20550;-82
2022/12/17 20:53:10;;;;;;;180.00;63.22;;;;;;;-5.93;100.00;66135.63;5020355;28;20073;-83
2022/12/17 20:55:36;;;;;;;208.93;74.80;;;;;;;-5.93;100.00;66130.44;5024674;28;20046;-84
2022/12/17 20:58:01;;;;;;;156.88;53.85;;;;;;;;;;5013516;28;20050;-82
2022/12/17 21:00:27;;;;;;;180.05;66.68;;;;;;;-6.04;100.00;66120.19;4994486;28;20046;-82
2022/12/17 21:02:52;;;;;;;194.60;65.85;;;;;;;-6.01;100.00;66121.53;5022381;28;20523;-83
2022/12/17 21:05:18;;;;;;;214.85;77.22;;;;;;;-6.04;100.00;66120.19;5020913;28;20531;-82
2022/12/17 21:07:44;;;;;;;192.40;76.13;;;;;;;-6.06;100.00;66118.53;5027765;28;20033;-81
2022/12/17 21:10:10;;;;;;;175.80;62.13;;;;;;;-6.02;100.00;66122.44;5009156;28;20044;-82
2022/12/17 21:15:20;;;;;;;196.43;74.68;;;;;;;-6.16;100.00;66107.91;5020919;28;20069;-82
2022/12/17 21:17:45;;;;;;;197.55;73.78;;;;;;;-6.20;100.00;66103.44;5002415;28;20481;-82
2022/12/17 21:20:11;;;;;;;195.57;70.00;;;;;;;-6.17;100.00;66106.78;5008114;28;20038;-82
2022/12/17 21:22:36;;;;;;;188.88;66.93;;;;;;;-6.21;100.00;66099.72;5001985;28;20115;-82
2022/12/17 21:25:02;;;;;;;169.48;62.72;;;;;;;-6.20;100.00;66106.00;5025448;28;20409;-82
2022/12/17 21:27:28;;;;;;;178.93;70.45;;;;;;;-6.32;100.00;66089.47;5008553;28;20038;-83
2022/12/17 21:29:53;;;;;;;166.57;64.38;;;;;;;-6.28;100.00;66093.94;5006082;28;20045;-84
2022/12/17 21:32:19;;;;;;;182.40;69.00;;;;;;;-6.33;100.00;66088.88;5001729;28;20133;-82
2022/12/17 21:34:44;;;;;;;163.13;59.97;;;;;;;-6.35;100.00;66086.66;5003715;28;20042;-82
2022/12/17 21:37:10;;;;;;;164.63;67.45;;;;;;;-6.39;100.00;66082.19;5000817;28;20141;-82
2022/12/17 21:39:35;;;;;;;164.20;65.78;;;;;;;-6.42;100.00;66081.97;5005365;28;20037;-82
2022/12/17 21:44:45;;;;;;;172.50;63.17;;;;;;;-6.52;100.00;66067.66;5017560;28;20069;-81
2022/12/17 21:47:10;;;;;;;168.30;62.35;;;;;;;-6.53;100.00;66067.13;4998785;28;20489;-81
2022/12/17 21:49:35;;;;;;;177.70;63.05;;;;;;;-6.54;100.00;66068.00;4998489;28;20508;-82
2022/12/17 21:52:01;;;;;;;165.27;60.58;;;;;;;-6.53;100.00;66069.13;5003093;28;20034;-81
2022/12/17 21:54:27;;;;;;;167.02;65.90;;;;;;;-6.59;100.00;66063.56;5008721;28;20052;-82
2022/12/17 21:56:52;;;;;;;174.15;69.35;;;;;;;-6.62;100.00;66057.63;4999251;28;20038;-83
2022/12/17 21:59:17;;;;;;;178.48;66.63;;;;;;;-6.70;100.00;66048.69;4991945;28;20057;-83
2022/12/17 22:01:43;;;;;;;165.98;69.10;;;;;;;-6.70;100.00;66048.09;5002344;28;20046;-83
2022/12/17 22:04:08;;;;;;;166.80;61.58;;;;;;;;;;4997714;28;20072;-82
2022/12/17 22:06:37;;;;;;;165.27;63.75;;;;;;;-6.78;100.00;66041.78;4996988;28;20406;-82
2022/12/17 22:09:03;;;;;;;;;;;;;;;-6.87;100.00;66030.25;4992714;28;20126;-82
2022/12/17 22:11:29;;;;;;;169.88;64.70;;;;;;;-6.99;100.00;66016.28;5007272;28;19921;-82
2022/12/17 22:14:01;;;;;;;161.20;60.55;;;;;;;-7.08;100.00;66007.34;5031722;28;20037;-82
2022/12/17 22:16:29;;;;;;;154.82;63.55;;;;;;;-7.09;100.00;66006.22;5000864;28;20098;-82
2022/12/17 22:18:55;;;;;;;159.77;65.22;;;;;;;-7.15;100.00;65998.97;5004572;28;20041;-83
2022/12/17 22:21:20;;;;;;;157.82;61.25;;;;;;;-7.15;100.00;66002.09;5002437;28;20160;-82
2022/12/17 22:23:49;;;;;;;173.85;65.28;;;;;;;-7.22;100.00;65991.13;5013678;28;20044;-83
2022/12/17 22:26:15;;;;;;;;;;;;;;;-7.22;100.00;65996.88;5010547;28;20061;-83
2022/12/17 22:28:42;;;;;;;151.18;61.10;;;;;;;-7.38;100.00;65976.97;5017690;28;19971;-83
2022/12/17 22:33:54;;;;;;;150.35;62.03;;;;;;;-7.44;100.00;65972.31;5001126;28;20100;-83
2022/12/17 22:36:19;;;;;;;143.50;59.45;;;;;;;-7.43;100.00;65970.84;5017494;28;20444;-83
2022/12/17 22:38:45;;;;;;;131.50;54.92;;;;;;;-7.51;100.00;65963.03;4999522;28;20054;-82
2022/12/17 22:43:28;;;;;;;133.05;56.60;;;;;;;-7.53;100.00;65960.81;5020255;28;20038;-83
2022/12/17 22:44:00;;;;;;;126.00;55.83;;;;;;;-7.65;100.00;65944.25;5009464;28;20038;-83
2022/12/17 22:46:25;;;;;;;121.22;54.55;;;;;;;-7.65;100.00;65944.81;5017043;28;20049;-82
2022/12/17 22:48:51;;;;;;;123.07;52.50;;;;;;;-7.60;100.00;65952.41;5025278;28;20025;-82
2022/12/17 22:51:16;;;;;;;124.15;53.70;;;;;;;-7.58;100.00;65952.63;5016430;28;20058;-82
2022/12/17 22:53:42;;;;;;;127.47;55.50;;;;;;;-7.59;100.00;65954.09;5032357;28;20044;-83
2022/12/17 22:56:08;;;;;;;133.57;56.13;;;;;;;-7.58;100.00;65952.63;5028020;28;20100;-83
2022/12/17 22:58:36;;;;;;;119.78;56.05;;;;;;;-7.60;100.00;65947.81;5019645;28;20030;-83
2022/12/17 23:01:01;;;;;;;126.37;53.60;;;;;;;-7.60;100.00;65955.00;5026360;28;20068;-82
2022/12/17 23:03:27;;;;;;;132.95;57.22;;;;;;;-7.65;100.00;65942.25;5031656;28;20097;-81
2022/12/17 23:06:04;;;;;;;127.55;53.30;;;;;;;-7.68;100.00;65944.06;5017768;28;20062;-82
2022/12/17 23:08:30;;;;;;;127.67;57.73;;;;;;;-7.67;100.00;65945.16;5019736;28;20061;-82
2022/12/17 23:10:55;;;;;;;129.07;61.25;;;;;;;-7.72;100.00;65937.00;5012355;28;20115;-82
2022/12/17 23:13:20;;;;;;;131.95;55.05;;;;;;;-7.71;100.00;65943.28;5014246;28;20096;-84
2022/12/17 23:15:46;;;;;;;135.82;56.58;;;;;;;-7.72;100.00;65940.13;5019273;28;20049;-83
2022/12/17 23:18:11;;;;;;;122.95;55.75;;;;;;;-7.75;100.00;65936.78;5037873;28;20045;-83
2022/12/17 23:20:36;;;;;;;124.93;54.58;;;;;;;-7.70;100.00;65941.81;5019747;28;20106;-83
2022/12/17 23:23:02;;;;;;;123.15;53.17;;;;;;;-7.75;100.00;65931.63;5018463;28;20104;-82
2022/12/17 23:25:28;;;;;;;117.00;55.17;;;;;;;-7.80;100.00;65928.63;5013031;28;20796;-84
2022/12/17 23:27:53;;;;;;;118.53;54.42;;;;;;;-7.77;100.00;65931.41;5008351;28;20060;-82
2022/12/17 23:30:19;;;;;;;131.30;57.40;;;;;;;-7.87;100.00;65925.44;5016679;28;20105;-82
2022/12/17 23:32:46;;;;;;;122.00;54.03;;;;;;;-7.85;100.00;65922.50;5018288;28;20072;-83
2022/12/17 23:35:12;;;;;;;119.40;54.42;;;;;;;-7.86;100.00;65921.38;5014429;28;20042;-83
2022/12/17 23:37:39;;;;;;;112.05;50.28;;;;;;;-7.78;100.00;65932.91;5013244;28;20553;-82
2022/12/17 23:40:05;;;;;;;111.97;52.35;;;;;;;-7.75;100.00;65936.25;5018290;28;20545;-81
2022/12/17 23:42:31;;;;;;;114.05;52.45;;;;;;;-7.79;100.00;65934.38;5017951;28;20058;-81
2022/12/17 23:44:56;;;;;;;118.60;54.42;;;;;;;-7.85;100.00;65927.66;5022048;28;20044;-82
2022/12/17 23:47:21;;;;;;;121.88;54.70;;;;;;;-7.84;100.00;65926.75;5000183;28;20104;-83
2022/12/17 23:49:47;;;;;;;117.53;51.13;;;;;;;-7.96;100.00;65913.91;5014956;28;20069;-83
2022/12/17 23:52:12;;;;;;;115.30;54.67;;;;;;;-7.97;100.00;65910.22;5019761;28;20038;-82
2022/12/17 23:54:38;;;;;;;122.47;54.40;;;;;;;-7.97;100.00;65912.81;5022260;28;20048;-82
2022/12/17 23:57:03;;;;;;;126.00;54.53;;;;;;;-7.95;100.00;65911.91;5015853;28;20099;-81
2022/12/17 23:59:28;;;;;;;119.72;51.50;;;;;;;-8.03;100.00;65906.09;5005439;28;20046;-82
